Time;durP1;ratioP1;P1;durP2;ratioP2;P2;SDS_P1;SDS_P2;PMS_P1;PMS_P2;Temp;Humidity;BMP_temperature;BMP_pressure;BME280_temperature;BME280_humidity;BME280_pressure;Samples;Min_cycle;Max_cycle;Signal;HPM_P1;HPM_P2
2022/11/24 00:01:55;;;;;;;11.45;8.10;;;;;;;-2.29;80.88;99344.00;5027444;28;20045;-67
2022/11/24 00:04:21;;;;;;;11.35;8.48;;;;;;;-2.31;81.46;99349.03;5042860;28;20022;-67
2022/11/24 00:06:46;;;;;;;10.85;8.35;;;;;;;-2.23;80.91;99350.91;5023355;28;20049;-66
2022/11/24 00:09:12;;;;;;;13.38;8.60;;;;;;;-2.18;82.45;99346.78;5038046;28;20068;-67
2022/11/24 00:11:37;;;;;;;8.85;7.13;;;;;;;-2.05;81.49;99361.50;5034068;28;20026;-67
2022/11/24 00:14:04;;;;;;;10.98;7.78;;;;;;;-1.92;81.73;99355.03;5028268;28;20081;-66
2022/11/24 00:16:32;;;;;;;10.25;8.38;;;;;;;-2.00;80.89;99352.28;5025030;28;20033;-67
2022/11/24 00:19:00;;;;;;;12.77;8.35;;;;;;;-2.21;81.00;99354.31;5042983;28;20092;-66
2022/11/24 00:21:27;;;;;;;10.88;8.13;;;;;;;-1.96;80.38;99359.16;5027890;28;20066;-67
2022/11/24 00:23:53;;;;;;;11.95;8.38;;;;;;;-1.94;81.86;99355.00;5030088;28;20254;-66
2022/11/24 00:26:21;;;;;;;10.15;7.38;;;;;;;-2.14;82.06;99368.88;5030453;28;20025;-66
2022/11/24 00:28:48;;;;;;;12.80;8.65;;;;;;;-1.90;81.82;99358.44;5038574;28;20258;-67
2022/11/24 00:31:18;;;;;;;12.18;8.48;;;;;;;-2.06;80.48;99372.44;5023231;28;20026;-67
2022/11/24 00:33:45;;;;;;;12.73;8.70;;;;;;;-2.22;80.84;99357.66;5022904;28;20025;-67
2022/11/24 00:36:11;;;;;;;11.93;8.52;;;;;;;-2.15;80.48;99380.69;5038502;28;20037;-67
2022/11/24 00:38:37;;;;;;;10.48;8.32;;;;;;;-2.28;81.55;99379.53;5047665;28;20048;-67
2022/11/24 00:41:03;;;;;;;12.23;8.60;;;;;;;-1.99;81.06;99391.22;5027565;28;20052;-66
2022/11/24 00:43:28;;;;;;;13.30;9.32;;;;;;;-2.08;81.53;99384.25;5041738;28;20066;-66
2022/11/24 00:45:54;;;;;;;11.70;8.63;;;;;;;-2.13;80.67;99394.25;5027921;28;20047;-67
2022/11/24 00:48:19;;;;;;;10.98;8.05;;;;;;;-2.06;81.12;99402.91;5041813;28;20025;-67
2022/11/24 00:50:58;;;;;;;10.02;8.15;;;;;;;-2.14;80.01;99373.94;5042469;28;20053;-67
2022/11/24 00:53:24;;;;;;;11.98;8.88;;;;;;;-2.23;80.33;99388.94;5036665;28;20037;-66
2022/11/24 00:55:50;;;;;;;12.65;8.63;;;;;;;-2.17;81.46;99376.41;5030583;28;20025;-69
2022/11/24 00:58:16;;;;;;;11.73;8.30;;;;;;;-2.33;80.13;99388.69;5046824;28;20038;-67
2022/11/24 01:00:41;;;;;;;11.57;8.88;;;;;;;-2.23;80.31;99388.94;5027512;28;20096;-68
2022/11/24 01:03:07;;;;;;;13.45;9.20;;;;;;;-2.20;81.16;99394.09;5040737;28;20110;-67
2022/11/24 01:05:37;;;;;;;11.32;8.40;;;;;;;-2.32;80.20;99394.66;5036921;28;20217;-68
2022/11/24 01:08:02;;;;;;;12.98;9.30;;;;;;;-2.43;81.77;99399.44;5032063;28;20061;-68
2022/11/24 01:10:28;;;;;;;12.70;8.88;;;;;;;-2.23;82.04;99404.16;5036152;28;20029;-68
2022/11/24 01:12:54;;;;;;;13.55;9.23;;;;;;;-2.24;81.98;99397.38;5040691;28;20105;-67
2022/11/24 01:15:19;;;;;;;12.80;9.32;;;;;;;-2.44;81.35;99396.03;5026546;28;20021;-67
2022/11/24 01:17:45;;;;;;;12.90;8.45;;;;;;;-2.41;83.12;99402.84;5037603;28;20265;-67
2022/11/24 01:20:11;;;;;;;11.05;8.57;;;;;;;-2.31;82.46;99406.47;5039658;28;20080;-68
2022/11/24 01:22:38;;;;;;;13.45;9.85;;;;;;;-2.09;81.81;99407.91;5036083;28;20048;-67
2022/11/24 01:25:05;;;;;;;13.70;9.73;;;;;;;-2.04;82.69;99387.72;5026167;28;20029;-66
2022/11/24 01:27:31;;;;;;;13.30;9.70;;;;;;;-1.94;82.35;99407.41;5026408;28;20026;-69
2022/11/24 01:29:57;;;;;;;13.75;9.90;;;;;;;-1.88;82.29;99417.72;5038774;28;20022;-68
2022/11/24 01:32:22;;;;;;;13.93;9.90;;;;;;;-1.82;83.93;99414.47;5037967;28;20080;-68
2022/11/24 01:34:48;;;;;;;13.02;9.55;;;;;;;-1.79;82.72;99412.00;5029091;28;20341;-68
2022/11/24 01:37:14;;;;;;;14.15;9.52;;;;;;;-1.99;82.31;99419.97;5045943;28;20026;-68
2022/11/24 01:39:39;;;;;;;13.32;9.60;;;;;;;-2.14;82.83;99417.06;5027259;28;20108;-68
2022/11/24 01:42:06;;;;;;;13.40;9.70;;;;;;;-2.16;82.46;99411.94;5039630;28;20025;-67
2022/11/24 01:44:32;;;;;;;14.52;10.05;;;;;;;-2.15;83.28;99413.66;5035466;28;20026;-67
2022/11/24 01:47:01;;;;;;;12.93;9.00;;;;;;;-2.36;82.53;99395.38;5032134;28;20026;-67
2022/11/24 01:49:38;;;;;;;14.32;9.82;;;;;;;-2.36;83.79;99406.38;5025967;28;20098;-67
2022/11/24 01:52:14;;;;;;;16.70;10.10;;;;;;;-2.23;83.81;99391.47;5025991;28;20038;-66
2022/11/24 01:54:50;;;;;;;13.25;9.82;;;;;;;-2.06;83.32;99433.34;5058351;28;20355;-67
2022/11/24 01:57:23;;;;;;;14.65;9.95;;;;;;;-2.31;83.02;99404.81;5044447;28;20044;-67
2022/11/24 01:59:53;;;;;;;13.05;9.25;;;;;;;-2.58;82.86;99361.84;5033628;28;20198;-67
2022/11/24 02:02:20;;;;;;;12.70;9.00;;;;;;;-2.28;82.10;99429.38;5032801;28;20029;-67
2022/11/24 02:04:47;;;;;;;12.27;9.57;;;;;;;-2.23;82.17;99439.66;5042124;28;20088;-67
2022/11/24 02:07:13;;;;;;;13.70;9.50;;;;;;;-2.32;82.49;99428.47;5025530;28;20060;-66
2022/11/24 02:09:44;;;;;;;13.82;10.45;;;;;;;-2.05;83.14;99439.25;5039185;28;20021;-66
2022/11/24 02:12:10;;;;;;;14.02;9.88;;;;;;;-1.96;82.30;99447.13;5039655;28;20109;-67
2022/11/24 02:14:39;;;;;;;13.40;9.32;;;;;;;-1.96;82.39;99439.50;5026157;28;20026;-66
2022/11/24 02:17:05;;;;;;;14.68;9.95;;;;;;;-1.91;82.31;99443.88;5040755;28;20079;-67
2022/11/24 02:19:44;;;;;;;14.73;9.27;;;;;;;-2.05;82.14;99464.63;5047374;28;20097;-67
2022/11/24 02:22:42;;;;;;;16.38;9.93;;;;;;;-2.08;82.36;99458.66;5033498;28;20021;-67
2022/11/24 02:25:30;;;;;;;11.63;8.88;;;;;;;-2.21;82.56;99461.69;5049236;28;20042;-67
2022/11/24 02:27:59;;;;;;;13.32;9.30;;;;;;;-2.31;79.92;99462.28;5025119;28;20038;-67
2022/11/24 02:30:25;;;;;;;15.25;10.30;;;;;;;-2.37;81.08;99465.50;5041136;28;20193;-67
2022/11/24 02:32:51;;;;;;;14.55;10.32;;;;;;;-2.31;81.59;99465.69;5044770;28;20026;-68
2022/11/24 02:35:17;;;;;;;13.85;9.98;;;;;;;-2.07;82.00;99464.59;5037204;28;20453;-67
2022/11/24 02:37:43;;;;;;;14.35;10.02;;;;;;;-2.03;82.60;99466.38;5042722;28;20036;-67
2022/11/24 02:40:09;;;;;;;13.40;9.80;;;;;;;-2.27;80.30;99475.09;5024657;28;20029;-68
2022/11/24 02:42:43;;;;;;;12.95;9.02;;;;;;;-2.38;80.96;99460.38;5042523;28;20029;-68
2022/11/24 02:45:10;;;;;;;13.77;9.45;;;;;;;-2.35;80.43;99471.50;5024395;28;20057;-68
2022/11/24 02:47:36;;;;;;;14.55;10.27;;;;;;;-2.19;80.32;99485.44;5034612;28;20191;-66
2022/11/24 02:50:02;;;;;;;14.05;9.65;;;;;;;-2.47;79.85;99482.13;5029075;28;20028;-68
2022/11/24 02:52:29;;;;;;;14.75;10.05;;;;;;;-2.20;81.21;99482.84;5045763;28;20036;-67
2022/11/24 02:54:54;;;;;;;15.38;10.70;;;;;;;-2.19;80.60;99476.97;5025127;28;20298;-67
2022/11/24 02:57:22;;;;;;;15.48;10.73;;;;;;;-2.20;80.92;99460.03;5039116;28;20026;-67
2022/11/24 02:59:47;;;;;;;13.25;9.35;;;;;;;-2.31;79.92;99477.47;5044724;28;20036;-67
2022/11/24 03:02:13;;;;;;;12.45;9.27;;;;;;;-2.54;80.62;99489.53;5038317;28;20089;-66
2022/11/24 03:04:39;;;;;;;14.15;10.30;;;;;;;-2.40;80.99;99477.25;5025743;28;20033;-67
2022/11/24 03:07:04;;;;;;;13.10;9.93;;;;;;;-2.55;80.19;99475.13;5044008;28;20211;-66
2022/11/24 03:09:30;;;;;;;14.43;10.52;;;;;;;-2.50;79.95;99476.97;5042845;28;20029;-66
2022/11/24 03:11:56;;;;;;;16.45;11.20;;;;;;;-2.35;81.66;99468.94;5031864;28;20072;-66
2022/11/24 03:14:21;;;;;;;12.50;9.15;;;;;;;-2.42;80.37;99479.75;5024205;28;20249;-66
2022/11/24 03:16:47;;;;;;;13.75;9.57;;;;;;;-2.40;80.98;99478.09;5024523;28;20137;-66
2022/11/24 03:19:13;;;;;;;16.15;10.50;;;;;;;-2.66;81.39;99488.38;5043872;28;20030;-67
2022/11/24 03:21:38;;;;;;;14.73;10.68;;;;;;;-2.70;81.30;99473.03;5027354;28;20033;-68
2022/11/24 03:24:04;;;;;;;14.35;10.20;;;;;;;-2.62;81.03;99487.66;5023757;28;20072;-68
2022/11/24 03:26:32;;;;;;;15.07;10.23;;;;;;;-2.79;81.96;99483.78;5023573;28;20022;-67
2022/11/24 03:28:58;;;;;;;13.75;9.88;;;;;;;-2.59;81.26;99499.56;5023777;28;20022;-67
2022/11/24 03:31:24;;;;;;;13.85;10.00;;;;;;;-2.66;80.61;99495.97;5024204;28;20033;-67
2022/11/24 03:33:49;;;;;;;14.77;10.02;;;;;;;-2.85;80.14;99493.72;5042557;28;20122;-66
2022/11/24 03:36:15;;;;;;;15.73;10.38;;;;;;;-2.99;80.50;99501.78;5042595;28;20191;-67
2022/11/24 03:38:41;;;;;;;11.93;9.23;;;;;;;-2.88;80.69;99503.78;5034066;28;20041;-69
2022/11/24 03:41:07;;;;;;;13.38;10.10;;;;;;;-3.02;81.31;99503.34;5023456;28;20228;-67
2022/11/24 03:43:32;;;;;;;15.82;10.88;;;;;;;-3.00;81.93;99510.19;5023881;28;20041;-69
2022/11/24 03:45:58;;;;;;;17.15;11.00;;;;;;;-2.85;81.93;99512.34;5042504;28;20033;-68
2022/11/24 03:48:24;;;;;;;16.80;11.55;;;;;;;-2.79;82.26;99504.91;5027158;28;20063;-68
2022/11/24 03:50:55;;;;;;;14.15;10.65;;;;;;;-2.89;81.52;99494.44;5033831;28;20326;-67
2022/11/24 03:53:20;;;;;;;14.43;10.25;;;;;;;-2.84;82.04;99520.78;5037070;28;20033;-67
2022/11/24 03:55:46;;;;;;;16.25;11.57;;;;;;;-2.91;82.58;99504.53;5025343;28;20132;-68
2022/11/24 03:58:11;;;;;;;12.32;9.25;;;;;;;-3.23;82.28;99523.84;5033693;28;20310;-67
2022/11/24 04:00:37;;;;;;;13.38;9.60;;;;;;;-3.17;82.16;99524.00;5023486;28;20080;-66
2022/11/24 04:03:02;;;;;;;15.70;10.30;;;;;;;-3.07;82.44;99520.09;5035304;28;20022;-67
2022/11/24 04:05:28;;;;;;;16.23;10.50;;;;;;;-3.19;81.81;99529.03;5041915;28;20109;-67
2022/11/24 04:07:56;;;;;;;14.55;9.10;;;;;;;-3.27;82.24;99524.56;5039177;28;20025;-67
2022/11/24 04:10:22;;;;;;;14.07;10.00;;;;;;;-3.15;82.65;99529.97;5033130;28;20290;-67
2022/11/24 04:12:48;;;;;;;15.23;10.55;;;;;;;-3.10;82.21;99533.53;5022722;28;20050;-67
2022/11/24 04:15:16;;;;;;;15.00;10.63;;;;;;;-3.14;82.29;99508.91;5023340;28;20028;-67
2022/11/24 04:17:42;;;;;;;14.60;10.55;;;;;;;-3.05;82.59;99539.59;5041725;28;20305;-68
2022/11/24 04:20:09;;;;;;;15.10;10.65;;;;;;;-3.04;81.48;99540.44;5038301;28;20052;-69
2022/11/24 04:22:35;;;;;;;14.27;10.70;;;;;;;-3.13;82.07;99543.56;5034448;28;20393;-68
2022/11/24 04:25:02;;;;;;;16.17;10.85;;;;;;;-3.15;82.30;99546.06;5022703;28;20026;-68
2022/11/24 04:27:28;;;;;;;15.48;10.82;;;;;;;-3.15;83.57;99529.97;5038940;28;20209;-67
2022/11/24 04:29:54;;;;;;;16.75;12.25;;;;;;;-2.91;83.25;99550.13;5027059;28;20025;-68
2022/11/24 04:32:20;;;;;;;15.95;11.55;;;;;;;-3.15;82.61;99545.16;5033392;28;20025;-67
2022/11/24 04:34:45;;;;;;;16.27;11.07;;;;;;;-2.96;83.12;99541.56;5045580;28;20239;-68
2022/11/24 04:37:11;;;;;;;17.25;11.52;;;;;;;-2.86;82.04;99545.22;5026688;28;20076;-68
2022/11/24 04:39:37;;;;;;;18.10;12.25;;;;;;;-2.77;82.78;99541.28;5034036;28;20058;-68
2022/11/24 04:42:03;;;;;;;15.27;10.18;;;;;;;-2.78;81.01;99543.75;5042433;28;20036;-67
2022/11/24 04:44:28;;;;;;;18.33;10.82;;;;;;;-2.71;81.16;99552.41;5046803;28;20089;-66
2022/11/24 04:46:54;;;;;;;14.52;10.18;;;;;;;-2.90;81.22;99544.25;5044028;28;20021;-67
2022/11/24 04:49:20;;;;;;;15.35;10.75;;;;;;;-2.89;80.44;99560.31;5026650;28;20037;-68
2022/11/24 04:51:45;;;;;;;16.42;11.48;;;;;;;-2.92;81.83;99563.63;5029781;28;20262;-68
2022/11/24 04:54:12;;;;;;;17.77;11.43;;;;;;;-2.95;81.10;99572.00;5039691;28;20033;-67
2022/11/24 04:56:39;;;;;;;16.65;10.80;;;;;;;-2.94;81.26;99570.31;5041878;28;20038;-67
2022/11/24 04:59:05;;;;;;;15.82;11.50;;;;;;;-3.02;81.31;99576.81;5042429;28;20045;-67
2022/11/24 05:01:31;;;;;;;16.23;10.77;;;;;;;-3.38;82.62;99578.22;5031673;28;20097;-69
2022/11/24 05:03:57;;;;;;;15.43;10.90;;;;;;;-2.98;82.50;99569.38;5030480;28;20025;-65
2022/11/24 05:06:23;;;;;;;15.70;10.75;;;;;;;-2.99;80.61;99561.72;5042585;28;20235;-68
2022/11/24 05:08:51;;;;;;;17.75;10.98;;;;;;;-3.04;80.60;99584.34;5036678;28;20080;-66
2022/11/24 05:11:17;;;;;;;16.45;11.32;;;;;;;-2.81;81.20;99580.03;5031522;28;20117;-67
2022/11/24 05:13:43;;;;;;;17.13;11.38;;;;;;;-3.03;80.46;99629.16;5034265;28;20068;-67
2022/11/24 05:16:09;;;;;;;16.33;10.77;;;;;;;-3.24;80.89;99583.72;5039532;28;20033;-66
2022/11/24 05:18:35;;;;;;;15.18;10.40;;;;;;;-3.26;80.93;99589.53;5037744;28;20036;-66
2022/11/24 05:21:00;;;;;;;17.00;10.73;;;;;;;-3.53;81.35;99557.47;5045075;28;20558;-66
2022/11/24 05:23:26;;;;;;;16.70;11.30;;;;;;;-3.23;81.23;99600.66;5033816;28;20071;-67
2022/11/24 05:25:52;;;;;;;17.20;10.82;;;;;;;-3.22;80.49;99599.84;5044274;28;20190;-67
2022/11/24 05:28:18;;;;;;;16.08;10.98;;;;;;;-2.96;82.03;99604.88;5035346;28;20021;-68
2022/11/24 05:30:45;;;;;;;17.63;11.38;;;;;;;-2.85;80.87;99608.63;5028789;28;20045;-65
2022/11/24 05:33:17;;;;;;;19.42;11.35;;;;;;;-2.99;80.67;99597.19;5038829;28;20044;-68
2022/11/24 05:35:47;;;;;;;16.33;10.93;;;;;;;-2.70;80.39;99615.81;5036889;28;20061;-66
2022/11/24 05:38:14;;;;;;;21.65;13.38;;;;;;;-2.60;80.55;99620.34;5028581;28;20029;-66
2022/11/24 05:40:40;;;;;;;16.30;11.23;;;;;;;-2.56;79.81;99628.06;5045812;28;20110;-67
2022/11/24 05:43:12;;;;;;;18.33;11.40;;;;;;;-2.73;79.38;99618.25;5025733;28;20333;-68
2022/11/24 05:45:38;;;;;;;16.25;10.70;;;;;;;-2.89;79.12;99626.19;5042017;28;20030;-66
2022/11/24 05:48:11;;;;;;;17.73;10.65;;;;;;;-3.22;79.60;99621.75;5045410;28;20025;-66
2022/11/24 05:50:37;;;;;;;16.83;11.35;;;;;;;-2.84;80.29;99643.25;5037690;28;20053;-67
2022/11/24 05:53:05;;;;;;;17.23;10.90;;;;;;;-2.87;79.68;99653.28;5027838;28;20025;-67
2022/11/24 05:55:31;;;;;;;15.85;11.20;;;;;;;-2.66;80.47;99648.06;5044405;28;20025;-67
2022/11/24 05:58:02;;;;;;;16.50;11.02;;;;;;;-2.65;79.78;99656.50;5026683;28;20022;-66
2022/11/24 06:00:29;;;;;;;16.55;9.80;;;;;;;-2.75;79.37;99640.19;5025334;28;20072;-67
2022/11/24 06:02:56;;;;;;;14.98;10.18;;;;;;;-2.70;79.50;99658.91;5035116;28;20025;-66
2022/11/24 06:05:22;;;;;;;17.42;10.93;;;;;;;-3.09;78.91;99650.88;5039735;28;20022;-68
2022/11/24 06:07:48;;;;;;;14.88;10.48;;;;;;;-2.99;79.81;99663.06;5025996;28;20124;-66
2022/11/24 06:10:17;;;;;;;16.85;11.00;;;;;;;-3.32;79.85;99629.06;5036111;28;20029;-67
2022/11/24 06:12:43;;;;;;;15.23;10.40;;;;;;;-3.36;80.22;99661.84;5037803;28;20046;-68
2022/11/24 06:15:10;;;;;;;16.60;10.68;;;;;;;-3.29;80.22;99663.75;5024961;28;20048;-67
2022/11/24 06:17:35;;;;;;;17.00;10.93;;;;;;;-3.40;80.38;99663.38;5032605;28;20033;-67
2022/11/24 06:20:01;;;;;;;15.63;11.35;;;;;;;-3.13;81.24;99673.56;5042513;28;20052;-66
2022/11/24 06:22:27;;;;;;;17.65;11.45;;;;;;;-3.30;80.89;99667.09;5035922;28;20024;-67
2022/11/24 06:24:53;;;;;;;16.92;11.30;;;;;;;-2.93;80.96;99678.44;5030435;28;20018;-67
2022/11/24 06:27:18;;;;;;;17.73;10.75;;;;;;;-3.04;79.85;99675.53;5031880;28;20041;-67
2022/11/24 06:29:44;;;;;;;16.17;9.82;;;;;;;-3.00;79.82;99682.44;5024863;28;20033;-68
2022/11/24 06:32:10;;;;;;;15.18;10.23;;;;;;;-3.05;79.57;99683.97;5028730;28;20031;-68
2022/11/24 06:34:35;;;;;;;15.10;10.82;;;;;;;-3.07;79.92;99693.19;5044923;28;20308;-67
2022/11/24 06:37:01;;;;;;;15.43;10.65;;;;;;;-3.24;79.79;99672.34;5025787;28;20093;-68
2022/11/24 06:39:27;;;;;;;17.58;11.90;;;;;;;-3.10;79.88;99684.63;5038936;28;20360;-69
2022/11/24 06:41:52;;;;;;;15.20;10.30;;;;;;;-3.01;79.72;99692.53;5040988;28;20067;-68
2022/11/24 06:44:18;;;;;;;16.42;10.82;;;;;;;-2.91;79.75;99692.00;5036635;28;20031;-68
2022/11/24 06:46:44;;;;;;;16.33;10.85;;;;;;;-3.03;78.97;99692.47;5038442;28;20026;-67
2022/11/24 06:49:09;;;;;;;17.35;11.60;;;;;;;-3.12;79.27;99682.06;5033920;28;20064;-66
2022/11/24 06:51:35;;;;;;;19.25;11.80;;;;;;;-3.15;80.00;99692.06;5034305;28;20303;-69
2022/11/24 06:54:05;;;;;;;18.90;12.07;;;;;;;-3.04;79.99;99705.09;5035164;28;20017;-67
2022/11/24 06:56:30;;;;;;;17.50;11.30;;;;;;;-3.33;79.59;99702.44;5035140;28;20099;-68
2022/11/24 06:58:56;;;;;;;18.90;12.88;;;;;;;-3.12;79.89;99702.31;5033526;28;20026;-67
2022/11/24 07:01:24;;;;;;;17.95;11.85;;;;;;;-3.30;80.09;99716.06;5033465;28;20191;-68
2022/11/24 07:03:51;;;;;;;17.42;11.32;;;;;;;-3.31;79.98;99691.56;5035050;28;20021;-67
2022/11/24 07:06:19;;;;;;;18.58;12.05;;;;;;;-3.26;80.81;99685.75;5032152;28;20041;-66
2022/11/24 07:08:45;;;;;;;17.63;11.27;;;;;;;-3.14;80.52;99708.97;5032190;28;20038;-67
2022/11/24 07:11:14;;;;;;;17.48;11.82;;;;;;;-3.21;80.35;99707.06;5032524;28;20044;-66
2022/11/24 07:13:45;;;;;;;19.23;13.07;;;;;;;-3.15;79.99;99713.19;5032846;28;20053;-67
2022/11/24 07:16:19;;;;;;;18.15;11.55;;;;;;;-3.61;80.95;99676.16;5012812;28;20022;-67
2022/11/24 07:18:47;;;;;;;18.13;11.85;;;;;;;-3.41;81.19;99714.81;5034766;28;20040;-67
2022/11/24 07:21:13;;;;;;;22.00;13.38;;;;;;;-3.23;80.38;99711.22;5042676;28;20333;-67
2022/11/24 07:23:39;;;;;;;16.38;11.45;;;;;;;-3.32;79.95;99716.78;5041560;28;20037;-67
2022/11/24 07:26:06;;;;;;;18.80;13.07;;;;;;;-3.25;80.87;99711.16;5033482;28;20100;-66
2022/11/24 07:28:32;;;;;;;18.60;13.10;;;;;;;-3.13;80.83;99715.78;5035356;28;20093;-68
2022/11/24 07:30:58;;;;;;;19.23;12.15;;;;;;;-3.22;80.11;99707.84;5033121;28;20337;-68
2022/11/24 07:33:25;;;;;;;18.83;13.23;;;;;;;-3.17;80.90;99712.25;5034395;28;20029;-68
2022/11/24 07:35:51;;;;;;;17.17;12.02;;;;;;;-3.09;80.08;99699.00;5034174;28;20026;-68
2022/11/24 07:38:16;;;;;;;20.70;11.80;;;;;;;-3.15;80.51;99703.06;5033982;28;20044;-70
2022/11/24 07:40:42;;;;;;;19.65;12.15;;;;;;;-3.14;80.12;99719.13;5034513;28;20298;-68
2022/11/24 07:43:07;;;;;;;19.45;13.30;;;;;;;-3.16;80.36;99711.47;5032936;28;20029;-68
2022/11/24 07:45:33;;;;;;;21.88;13.57;;;;;;;-3.31;81.44;99713.47;5032818;28;20028;-68
2022/11/24 07:47:59;;;;;;;20.00;13.20;;;;;;;-3.22;81.36;99707.84;5032960;28;20182;-68
2022/11/24 07:50:24;;;;;;;20.05;13.48;;;;;;;-3.17;80.99;99702.13;5033400;28;20040;-67
2022/11/24 07:52:50;;;;;;;20.65;13.73;;;;;;;-3.16;81.27;99718.22;5031951;28;20033;-68
2022/11/24 07:55:15;;;;;;;18.05;11.63;;;;;;;-3.16;80.57;99710.63;5032889;28;20249;-66
2022/11/24 07:57:41;;;;;;;19.38;12.30;;;;;;;-3.16;81.30;99715.69;5032705;28;20052;-67
2022/11/24 08:00:08;;;;;;;16.75;11.55;;;;;;;-3.18;80.95;99719.81;5032407;28;20213;-67
2022/11/24 08:02:33;;;;;;;15.00;10.40;;;;;;;-3.28;81.26;99716.09;5033138;28;20101;-68
2022/11/24 08:04:59;;;;;;;16.05;10.57;;;;;;;-3.01;80.91;99722.91;5033969;28;20030;-67
2022/11/24 08:07:24;;;;;;;18.23;11.85;;;;;;;-3.23;81.08;99718.81;5032638;28;20029;-68
2022/11/24 08:09:51;;;;;;;18.27;11.18;;;;;;;-3.30;81.67;99715.19;5033572;28;20052;-67
2022/11/24 08:12:20;;;;;;;16.05;11.18;;;;;;;-3.27;80.46;99729.66;5031582;28;20055;-67
2022/11/24 08:14:49;;;;;;;16.33;10.98;;;;;;;-3.33;81.63;99715.09;5031516;28;20053;-67
2022/11/24 08:17:16;;;;;;;17.17;10.85;;;;;;;-3.23;80.39;99723.88;5033128;28;20028;-67
2022/11/24 08:19:41;;;;;;;14.27;10.55;;;;;;;-3.32;80.44;99727.81;5033051;28;20176;-67
2022/11/24 08:22:07;;;;;;;17.98;11.52;;;;;;;-3.19;80.67;99728.22;5033662;28;20241;-66
2022/11/24 08:24:33;;;;;;;16.75;10.63;;;;;;;-3.04;80.10;99733.81;5031903;28;20214;-67
2022/11/24 08:26:58;;;;;;;17.15;11.15;;;;;;;-3.24;79.84;99728.06;5031973;28;20022;-67
2022/11/24 08:29:30;;;;;;;18.33;12.15;;;;;;;-3.28;80.93;99750.69;5032076;28;20030;-66
2022/11/24 08:31:57;;;;;;;18.40;12.18;;;;;;;-3.44;81.52;99744.22;5033451;28;20088;-70
2022/11/24 08:34:24;;;;;;;19.30;13.45;;;;;;;-3.50;82.11;99739.81;5032581;28;20025;-67
2022/11/24 08:36:50;;;;;;;20.95;13.90;;;;;;;-3.20;82.07;99757.75;5033369;28;20105;-66
2022/11/24 08:39:17;;;;;;;25.35;14.40;;;;;;;-3.12;81.75;99755.50;5031326;28;20033;-67
2022/11/24 08:41:43;;;;;;;27.02;16.00;;;;;;;-3.21;82.03;99752.63;5031233;28;20021;-67
2022/11/24 08:44:09;;;;;;;23.98;15.52;;;;;;;-3.15;81.86;99752.84;5031418;28;20037;-67
2022/11/24 08:46:35;;;;;;;25.80;15.27;;;;;;;-2.80;82.41;99765.84;5033183;28;20359;-67
2022/11/24 08:49:01;;;;;;;23.98;15.93;;;;;;;-2.98;81.55;99759.38;5031040;28;20101;-68
2022/11/24 08:51:27;;;;;;;22.88;14.38;;;;;;;-2.78;80.71;99769.28;5031342;28;20030;-67
2022/11/24 08:53:57;;;;;;;20.58;12.80;;;;;;;-2.83;80.20;99781.81;5031456;28;20348;-67
2022/11/24 08:56:27;;;;;;;18.77;11.75;;;;;;;-3.14;79.57;99793.41;5034211;28;20037;-67
2022/11/24 08:58:54;;;;;;;19.98;13.00;;;;;;;-3.13;80.25;99774.03;5035200;28;20046;-66
2022/11/24 09:01:20;;;;;;;19.23;12.55;;;;;;;-2.99;79.46;99794.78;5033028;28;20037;-67
2022/11/24 09:03:48;;;;;;;19.00;12.70;;;;;;;-3.10;80.10;99791.88;5033087;28;20022;-67
2022/11/24 09:06:15;;;;;;;19.30;13.25;;;;;;;-2.92;80.40;99791.66;5031479;28;20028;-67
2022/11/24 09:08:41;;;;;;;18.88;12.57;;;;;;;-2.92;80.42;99785.69;5031194;28;20021;-68
2022/11/24 09:11:12;;;;;;;18.20;12.30;;;;;;;-3.18;80.02;99784.00;5030896;28;20028;-68
2022/11/24 09:13:39;;;;;;;19.17;12.02;;;;;;;-3.32;80.07;99810.47;5027524;28;20278;-68
2022/11/24 09:16:08;;;;;;;18.35;11.88;;;;;;;-3.22;80.66;99809.16;5030455;28;20064;-70
2022/11/24 09:18:34;;;;;;;20.13;13.23;;;;;;;-3.03;80.71;99806.47;5036855;28;20026;-68
2022/11/24 09:21:17;;;;;;;18.80;12.40;;;;;;;-3.19;80.24;99791.53;5034792;28;20309;-67
2022/11/24 09:23:45;;;;;;;18.45;12.90;;;;;;;-3.13;80.27;99804.44;5037120;28;20033;-67
2022/11/24 09:26:18;;;;;;;18.10;11.88;;;;;;;-3.04;79.91;99804.72;5025970;28;20032;-68
2022/11/24 09:28:45;;;;;;;16.45;10.32;;;;;;;-3.12;79.00;99808.69;5026428;28;20030;-68
2022/11/24 09:31:13;;;;;;;16.60;11.35;;;;;;;-3.40;80.04;99794.16;5039230;28;20059;-67
2022/11/24 09:33:40;;;;;;;21.60;12.65;;;;;;;-3.30;80.13;99811.41;5031467;28;20057;-66
2022/11/24 09:36:06;;;;;;;18.98;12.38;;;;;;;-3.20;79.87;99807.56;5026382;28;20202;-68
2022/11/24 09:38:32;;;;;;;22.50;13.77;;;;;;;-3.07;80.82;99812.22;5031051;28;20025;-67
2022/11/24 09:41:46;;;;;;;19.52;12.63;;;;;;;-3.06;79.86;99810.59;5045534;28;20092;-68
2022/11/24 09:44:44;;;;;;;18.25;12.30;;;;;;;-2.91;79.74;99807.72;5026836;28;20213;-68
2022/11/24 09:47:38;;;;;;;20.05;12.57;;;;;;;-3.32;80.37;99810.47;5036310;28;20017;-69
2022/11/24 09:50:21;;;;;;;21.70;12.77;;;;;;;-3.44;80.49;99810.91;5036324;28;20013;-65
2022/11/24 09:52:52;;;;;;;18.58;12.80;;;;;;;-3.32;80.99;99811.38;5036439;28;20059;-67
2022/11/24 09:55:30;;;;;;;22.98;14.00;;;;;;;-3.41;81.80;99812.69;5036441;28;20245;-67
2022/11/24 09:58:24;;;;;;;18.13;11.80;;;;;;;-3.27;81.45;99809.00;5034455;28;20026;-67
2022/11/24 10:00:52;;;;;;;19.63;13.18;;;;;;;-3.26;80.42;99779.44;5034435;28;20033;-67
2022/11/24 10:03:28;;;;;;;19.27;12.93;;;;;;;-3.19;80.93;99814.31;5025280;28;20104;-67
2022/11/24 10:05:54;;;;;;;20.27;11.98;;;;;;;-3.13;80.51;99812.88;5033144;28;20025;-66
2022/11/24 10:08:23;;;;;;;17.05;12.10;;;;;;;-3.09;80.22;99815.50;5034776;28;20308;-67
2022/11/24 10:11:01;;;;;;;18.23;11.98;;;;;;;-3.32;79.62;99790.22;5028129;28;20034;-67
2022/11/24 10:13:52;;;;;;;18.45;11.93;;;;;;;-3.51;81.24;99809.81;5030504;28;20105;-66
2022/11/24 10:16:47;;;;;;;17.90;11.60;;;;;;;-3.35;80.52;99817.97;5043731;28;20037;-67
2022/11/24 10:19:58;;;;;;;18.10;11.57;;;;;;;-3.32;80.94;99821.50;5027708;28;20041;-65
2022/11/24 10:22:54;;;;;;;25.05;13.68;;;;;;;-3.18;81.73;99814.41;5044572;28;20041;-67
2022/11/24 10:25:41;;;;;;;17.83;11.63;;;;;;;-3.40;81.40;99827.94;5024080;28;20457;-67
2022/11/24 10:28:13;;;;;;;21.98;12.70;;;;;;;-3.37;81.54;99815.38;5042219;28;20029;-68
2022/11/24 10:30:40;;;;;;;22.38;13.15;;;;;;;-3.16;80.77;99830.50;5031120;28;20049;-68
2022/11/24 10:33:27;;;;;;;22.35;13.07;;;;;;;-2.98;81.85;99832.84;5032975;28;20029;-66
2022/11/24 10:36:06;;;;;;;21.30;12.57;;;;;;;-3.37;80.49;99812.84;5037542;28;20064;-68
2022/11/24 10:38:51;;;;;;;20.73;13.05;;;;;;;-3.39;80.65;99817.00;5029462;28;20044;-67
2022/11/24 10:41:29;;;;;;;18.27;12.73;;;;;;;-3.32;81.17;99830.72;5042416;28;20072;-67
2022/11/24 10:43:56;;;;;;;20.02;13.55;;;;;;;-3.25;81.80;99836.91;5024634;28;20324;-68
2022/11/24 10:46:27;;;;;;;20.08;12.57;;;;;;;-3.51;80.95;99809.81;5044122;28;20036;-67
2022/11/24 10:49:01;;;;;;;21.63;13.80;;;;;;;-3.24;80.31;99836.94;5028944;28;20102;-67
2022/11/24 10:51:29;;;;;;;22.92;14.35;;;;;;;-3.21;81.33;99829.47;5027984;28;20111;-67
2022/11/24 10:54:06;;;;;;;20.95;13.88;;;;;;;-3.49;81.14;99812.41;5024739;28;20101;-67
2022/11/24 10:56:42;;;;;;;23.35;14.93;;;;;;;-3.50;81.40;99805.63;5029098;28;20266;-68
2022/11/24 10:59:33;;;;;;;24.42;14.95;;;;;;;-3.11;81.60;99825.59;5043287;28;20071;-69
2022/11/24 11:01:59;;;;;;;22.38;13.43;;;;;;;-2.97;81.01;99831.16;5024382;28;20225;-67
2022/11/24 11:04:33;;;;;;;22.83;14.55;;;;;;;-3.08;81.17;99824.84;5044046;28;20063;-67
2022/11/24 11:07:22;;;;;;;23.05;14.77;;;;;;;-3.16;81.65;99830.50;5028193;28;20052;-67
2022/11/24 11:09:48;;;;;;;24.08;16.15;;;;;;;-2.99;82.13;99841.25;5033392;28;20111;-67
2022/11/24 11:12:27;;;;;;;22.55;14.38;;;;;;;-3.49;81.92;99846.19;5034050;28;20057;-67
2022/11/24 11:14:52;;;;;;;23.50;14.73;;;;;;;-3.64;83.08;99838.84;5024302;28;20037;-67
2022/11/24 11:17:30;;;;;;;27.08;16.73;;;;;;;-3.64;83.17;99853.19;5026443;28;20225;-68
2022/11/24 11:20:02;;;;;;;26.67;15.55;;;;;;;-3.50;83.29;99854.56;5044121;28;20314;-67
2022/11/24 11:22:36;;;;;;;27.40;15.63;;;;;;;-3.94;83.87;99828.44;5034845;28;20029;-66
2022/11/24 11:25:09;;;;;;;26.45;16.73;;;;;;;-3.55;83.85;99832.41;5043866;28;20079;-67
2022/11/24 11:27:36;;;;;;;26.77;16.27;;;;;;;-3.56;83.43;99848.41;5031198;28;20053;-68